createdAt,value
2019-05-17T00:02:03.050Z,9.53
2019-05-17T00:04:33.700Z,8.93
2019-05-17T00:07:06.503Z,7.93
2019-05-17T00:09:37.524Z,8.53
2019-05-17T00:12:08.163Z,7.97
2019-05-17T00:14:39.067Z,8.03
2019-05-17T00:17:09.724Z,9.17
2019-05-17T00:19:40.606Z,9.73
2019-05-17T00:22:11.175Z,9.10
2019-05-17T00:24:41.926Z,8.65
2019-05-17T00:27:13.581Z,10.93
2019-05-17T00:29:46.402Z,10.67
2019-05-17T00:32:17.263Z,11.70
2019-05-17T00:34:48.071Z,12.20
2019-05-17T00:37:18.676Z,11.33
2019-05-17T00:39:49.553Z,12.15
2019-05-17T00:42:20.291Z,13.53
2019-05-17T00:44:50.875Z,12.00
2019-05-17T00:47:21.425Z,9.17
2019-05-17T00:49:52.009Z,10.37
2019-05-17T00:52:24.115Z,11.90
2019-05-17T00:54:56.343Z,11.00
2019-05-17T00:57:27.456Z,12.40
2019-05-17T00:59:58.423Z,11.03
2019-05-17T01:02:29.315Z,11.23
2019-05-17T01:04:59.912Z,12.03
2019-05-17T01:07:30.949Z,10.37
2019-05-17T01:10:01.665Z,10.80
2019-05-17T01:12:32.277Z,13.27
2019-05-17T01:15:02.917Z,12.73
2019-05-17T01:17:36.405Z,13.00
2019-05-17T01:20:06.932Z,11.93
2019-05-17T01:22:37.902Z,13.13
2019-05-17T01:25:09.430Z,20.73
2019-05-17T01:27:40.132Z,13.68
2019-05-17T01:30:11.708Z,13.77
2019-05-17T01:32:42.489Z,13.55
2019-05-17T01:35:13.370Z,12.97
2019-05-17T01:37:43.938Z,12.50
2019-05-17T01:40:17.320Z,13.60
2019-05-17T01:42:47.300Z,14.20
2019-05-17T01:45:18.762Z,14.07
2019-05-17T01:47:49.347Z,14.37
2019-05-17T01:50:20.148Z,12.37
2019-05-17T01:52:51.055Z,12.47
2019-05-17T01:55:21.861Z,11.60
2019-05-17T01:57:52.424Z,11.37
2019-05-17T02:00:26.568Z,12.35
2019-05-17T02:02:57.826Z,12.17
2019-05-17T02:05:28.535Z,13.15
2019-05-17T02:07:59.156Z,10.60
2019-05-17T02:10:29.974Z,10.47
2019-05-17T02:13:00.848Z,12.53
2019-05-17T02:15:31.633Z,12.83
2019-05-17T02:18:02.234Z,10.67
2019-05-17T02:20:33.182Z,11.90
2019-05-17T02:23:04.129Z,10.93
2019-05-17T02:25:36.877Z,13.67
2019-05-17T02:28:07.488Z,13.07
2019-05-17T02:30:38.213Z,14.80
2019-05-17T02:33:12.430Z,12.47
2019-05-17T02:35:42.893Z,11.55
2019-05-17T02:38:14.210Z,13.63
2019-05-17T02:40:44.962Z,13.20
2019-05-17T02:43:15.798Z,13.70
2019-05-17T02:45:46.378Z,13.33
2019-05-17T02:48:17.212Z,12.67
2019-05-17T02:50:48.389Z,12.77
2019-05-17T02:53:19.053Z,12.93
2019-05-17T02:55:50.064Z,13.07
2019-05-17T02:58:23.335Z,13.70
2019-05-17T03:00:53.594Z,14.73
2019-05-17T03:03:24.349Z,13.73
2019-05-17T03:05:54.907Z,14.93
2019-05-17T03:08:26.119Z,15.13
2019-05-17T03:10:57.038Z,15.05
2019-05-17T03:13:27.896Z,15.53
2019-05-17T03:15:58.490Z,14.33
2019-05-17T03:18:29.059Z,14.40
2019-05-17T03:21:03.338Z,14.33
2019-05-17T03:23:32.901Z,12.63
2019-05-17T03:26:04.081Z,15.57
2019-05-17T03:28:35.397Z,12.53
2019-05-17T03:31:08.791Z,15.73
2019-05-17T03:33:38.907Z,15.07
2019-05-17T03:36:09.469Z,20.47
2019-05-17T03:38:43.008Z,22.93
2019-05-17T03:41:22.924Z,19.20
2019-05-17T03:43:45.079Z,17.97
2019-05-17T03:46:15.909Z,16.20
2019-05-17T03:48:46.544Z,17.53
2019-05-17T03:51:17.138Z,17.80
2019-05-17T03:53:48.047Z,14.97
2019-05-17T03:56:18.891Z,15.93
2019-05-17T03:58:52.837Z,18.40
2019-05-17T04:01:23.196Z,16.10
2019-05-17T04:03:54.015Z,18.17
2019-05-17T04:06:24.582Z,15.37
2019-05-17T04:08:55.329Z,15.30
2019-05-17T04:11:31.779Z,15.33
2019-05-17T04:13:58.566Z,15.70
2019-05-17T04:16:29.143Z,15.47
2019-05-17T04:19:02.828Z,14.73
2019-05-17T04:21:34.148Z,15.53
2019-05-17T04:24:04.593Z,15.50
2019-05-17T04:26:35.463Z,16.07
2019-05-17T04:29:06.288Z,15.37
2019-05-17T04:31:37.132Z,15.83
2019-05-17T04:34:07.717Z,15.00
2019-05-17T04:36:39.204Z,15.00
2019-05-17T04:39:13.131Z,14.63
2019-05-17T04:41:49.352Z,15.75
2019-05-17T04:44:15.540Z,16.23
2019-05-17T04:46:46.191Z,14.83
2019-05-17T04:49:17.067Z,16.02
2019-05-17T04:51:47.628Z,16.67
2019-05-17T04:54:18.349Z,19.63
2019-05-17T04:56:49.062Z,16.90
2019-05-17T04:59:19.653Z,21.80
2019-05-17T05:01:53.527Z,19.53
2019-05-17T05:04:23.781Z,19.00
2019-05-17T05:06:54.428Z,19.70
2019-05-17T05:09:25.506Z,18.50
2019-05-17T05:12:01.094Z,19.60
2019-05-17T05:14:28.779Z,19.75
2019-05-17T05:17:02.361Z,20.07
2019-05-17T05:19:32.991Z,19.13
2019-05-17T05:22:04.885Z,21.97
2019-05-17T05:24:35.844Z,22.70
2019-05-17T05:27:06.524Z,20.30
2019-05-17T05:29:37.528Z,22.10
2019-05-17T05:32:08.369Z,21.03
2019-05-17T05:34:39.491Z,20.35
2019-05-17T05:37:12.424Z,20.53
2019-05-17T05:39:42.621Z,21.85
2019-05-17T05:42:14.144Z,21.93
2019-05-17T05:44:45.190Z,20.10
2019-05-17T05:47:15.788Z,22.83
2019-05-17T05:49:46.538Z,20.90
2019-05-17T05:52:17.326Z,21.20
2019-05-17T05:54:48.229Z,22.58
2019-05-17T05:57:21.661Z,21.70
2019-05-17T05:59:51.814Z,21.10
2019-05-17T06:02:22.495Z,24.00
2019-05-17T06:04:53.440Z,21.13
2019-05-17T06:07:25.148Z,22.97
2019-05-17T06:09:55.838Z,21.93
2019-05-17T06:12:28.190Z,20.97
2019-05-17T06:14:58.880Z,21.20
2019-05-17T06:17:31.784Z,21.07
2019-05-17T06:20:02.802Z,20.37
2019-05-17T06:22:33.770Z,21.63
2019-05-17T06:25:14.646Z,19.60
2019-05-17T06:27:42.598Z,20.05
2019-05-17T06:30:14.587Z,19.37
2019-05-17T06:32:45.294Z,19.43
2019-05-17T06:35:16.040Z,18.80
2019-05-17T06:37:46.591Z,20.43
2019-05-17T06:40:17.528Z,19.60
2019-05-17T06:42:48.397Z,19.33
2019-05-17T06:45:19.211Z,18.87
2019-05-17T06:47:51.750Z,17.93
2019-05-17T06:50:23.644Z,18.35
2019-05-17T06:52:54.494Z,20.90
2019-05-17T06:55:25.545Z,20.60
2019-05-17T06:57:56.365Z,18.00
2019-05-17T07:00:27.065Z,19.47
2019-05-17T07:03:00.544Z,15.63
2019-05-17T07:05:33.313Z,18.10
2019-05-17T07:08:03.911Z,21.07
2019-05-17T07:10:34.565Z,16.87
2019-05-17T07:13:05.422Z,14.10
2019-05-17T07:15:46.353Z,17.87
2019-05-17T07:18:10.225Z,15.43
2019-05-17T07:20:41.520Z,16.97
2019-05-17T07:23:12.437Z,15.17
2019-05-17T07:26:23.189Z,14.90
2019-05-17T07:28:54.129Z,13.70
2019-05-17T07:31:29.831Z,14.13
2019-05-17T07:34:01.464Z,13.70
2019-05-17T07:37:01.306Z,12.40
2019-05-17T07:39:42.270Z,13.90
2019-05-17T07:42:19.654Z,14.07
2019-05-17T07:44:52.467Z,11.60
2019-05-17T07:47:24.372Z,13.53
2019-05-17T07:50:12.987Z,12.53
2019-05-17T07:52:44.067Z,12.27
2019-05-17T07:55:14.753Z,12.87
2019-05-17T07:57:45.562Z,12.33
2019-05-17T08:00:16.695Z,12.47
2019-05-17T08:02:50.324Z,10.63
2019-05-17T08:06:14.612Z,12.07
2019-05-17T08:08:24.964Z,11.77
2019-05-17T08:10:55.588Z,9.77
2019-05-17T08:13:30.555Z,11.90
2019-05-17T08:16:07.194Z,11.10
2019-05-17T08:18:40.094Z,10.48
2019-05-17T08:21:10.475Z,9.80
2019-05-17T08:23:41.525Z,8.63
2019-05-17T08:26:12.391Z,11.90
2019-05-17T08:28:43.205Z,9.83
2019-05-17T08:31:14.956Z,9.73
2019-05-17T08:33:45.850Z,10.30
2019-05-17T08:36:17.120Z,9.70
2019-05-17T08:38:49.993Z,9.23
2019-05-17T08:41:20.946Z,10.30
2019-05-17T08:43:54.378Z,10.77
2019-05-17T08:46:25.195Z,9.00
2019-05-17T08:48:56.503Z,9.23
2019-05-17T08:51:30.635Z,8.80
2019-05-17T08:54:02.099Z,9.15
2019-05-17T08:56:33.291Z,8.37
2019-05-17T08:59:05.569Z,7.75
2019-05-17T09:01:39.186Z,10.68
2019-05-17T09:04:12.266Z,9.45
2019-05-17T09:06:42.943Z,8.73
2019-05-17T09:09:39.486Z,9.23
2019-05-17T09:12:40.989Z,9.88
2019-05-17T09:15:42.519Z,8.73
2019-05-17T09:18:13.074Z,8.80
2019-05-17T09:20:43.956Z,8.37
2019-05-17T09:24:03.251Z,9.00
2019-05-17T09:26:34.076Z,8.20
2019-05-17T09:29:05.296Z,9.35
2019-05-17T09:31:36.003Z,9.45
2019-05-17T09:34:06.885Z,7.93
2019-05-17T09:36:37.731Z,7.70
2019-05-17T09:39:09.593Z,8.18
2019-05-17T09:41:40.585Z,9.17
2019-05-17T09:44:15.768Z,7.93
2019-05-17T09:46:44.199Z,8.10
2019-05-17T09:49:15.115Z,7.77
2019-05-17T09:51:46.193Z,9.83
2019-05-17T09:54:19.412Z,8.70
2019-05-17T09:56:49.813Z,8.47
2019-05-17T09:59:20.713Z,8.57
2019-05-17T10:01:52.328Z,9.00
2019-05-17T10:04:24.622Z,8.33
2019-05-17T10:06:55.269Z,7.85
2019-05-17T10:09:26.094Z,11.93
2019-05-17T10:11:57.170Z,9.90
2019-05-17T10:14:30.810Z,9.03
2019-05-17T10:17:48.599Z,9.50
2019-05-17T10:20:02.145Z,10.90
2019-05-17T10:22:33.025Z,8.70
2019-05-17T10:25:03.953Z,8.30
2019-05-17T10:27:35.475Z,7.83
2019-05-17T10:30:10.181Z,9.97
2019-05-17T10:32:40.773Z,9.20
2019-05-17T10:35:12.442Z,8.78
2019-05-17T10:37:43.022Z,9.65
2019-05-17T10:40:14.724Z,8.03
2019-05-17T10:42:45.758Z,9.10
2019-05-17T10:45:20.234Z,8.45
2019-05-17T10:47:51.127Z,8.43
2019-05-17T10:50:22.443Z,9.53
2019-05-17T10:53:13.844Z,7.90
2019-05-17T10:55:49.832Z,8.67
2019-05-17T10:58:21.687Z,7.22
2019-05-17T11:00:52.827Z,8.47
2019-05-17T11:03:24.666Z,11.00
2019-05-17T11:05:56.099Z,12.60
2019-05-17T11:08:27.055Z,7.13
2019-05-17T11:10:59.637Z,8.30
2019-05-17T11:13:30.838Z,7.60
2019-05-17T11:16:02.027Z,7.33
2019-05-17T11:18:32.934Z,8.30
2019-05-17T11:21:03.557Z,10.40
2019-05-17T11:23:34.436Z,9.47
2019-05-17T11:26:05.479Z,9.63
2019-05-17T11:28:36.110Z,7.42
2019-05-17T11:31:07.167Z,7.53
2019-05-17T11:33:38.441Z,11.07
2019-05-17T11:36:09.483Z,7.37
2019-05-17T11:38:40.344Z,6.97
2019-05-17T11:41:21.190Z,10.97
2019-05-17T11:43:43.979Z,6.90
2019-05-17T11:46:15.176Z,7.22
2019-05-17T11:48:46.065Z,7.17
2019-05-17T11:51:17.073Z,11.63
2019-05-17T11:53:48.220Z,10.28
2019-05-17T11:56:19.511Z,8.18
2019-05-17T11:58:50.250Z,8.08
2019-05-17T12:01:21.263Z,7.05
2019-05-17T12:03:52.290Z,7.97
2019-05-17T12:06:23.191Z,9.70
2019-05-17T12:08:54.036Z,9.30
2019-05-17T12:11:25.590Z,11.00
2019-05-17T12:13:56.235Z,8.83
2019-05-17T12:16:27.214Z,7.60
2019-05-17T12:18:58.689Z,6.50
2019-05-17T12:21:29.692Z,8.46
2019-05-17T12:24:00.648Z,6.73
2019-05-17T12:26:32.270Z,6.37
2019-05-17T12:29:03.524Z,6.87
2019-05-17T12:31:38.631Z,6.60
2019-05-17T12:34:14.882Z,7.43
2019-05-17T12:36:46.038Z,7.83
2019-05-17T12:39:17.533Z,9.25
2019-05-17T12:41:48.842Z,8.03
2019-05-17T12:44:21.098Z,9.10
2019-05-17T12:46:52.987Z,7.50
2019-05-17T12:49:27.528Z,7.40
2019-05-17T12:52:19.223Z,6.33
2019-05-17T12:55:04.840Z,8.08
2019-05-17T12:57:36.715Z,5.67
2019-05-17T13:00:10.403Z,6.20
2019-05-17T13:02:41.660Z,6.72
2019-05-17T13:05:13.066Z,6.60
2019-05-17T13:07:44.249Z,5.03
2019-05-17T13:10:15.454Z,5.97
2019-05-17T13:12:48.619Z,5.13
2019-05-17T13:15:20.725Z,6.07
2019-05-17T13:17:51.852Z,7.90
2019-05-17T13:20:23.295Z,5.37
2019-05-17T13:22:54.577Z,6.50
2019-05-17T13:25:45.423Z,5.63
2019-05-17T13:28:17.192Z,6.35
2019-05-17T13:30:48.826Z,6.50
2019-05-17T13:33:20.275Z,5.20
2019-05-17T13:35:51.731Z,6.93
2019-05-17T13:38:22.890Z,5.53
2019-05-17T13:40:54.419Z,7.27
2019-05-17T13:43:26.449Z,4.83
2019-05-17T13:45:57.920Z,5.00
2019-05-17T13:48:34.969Z,5.93
2019-05-17T13:51:06.456Z,6.58
2019-05-17T13:53:37.409Z,5.03
2019-05-17T13:56:08.887Z,5.23
2019-05-17T13:58:39.991Z,5.72
2019-05-17T14:01:10.922Z,6.80
2019-05-17T14:03:41.597Z,6.50
2019-05-17T14:06:12.492Z,6.23
2019-05-17T14:08:43.365Z,5.37
2019-05-17T14:11:17.450Z,6.40
2019-05-17T14:13:48.467Z,3.98
2019-05-17T14:16:19.376Z,4.23
2019-05-17T14:18:50.315Z,3.60
2019-05-17T14:21:21.265Z,4.00
2019-05-17T14:23:52.686Z,6.10
2019-05-17T14:26:24.826Z,4.62
2019-05-17T14:28:55.610Z,3.70
2019-05-17T14:31:26.462Z,4.33
2019-05-17T14:33:57.723Z,3.50
2019-05-17T14:36:28.483Z,3.40
2019-05-17T14:38:59.399Z,3.23
2019-05-17T14:41:30.253Z,3.37
2019-05-17T14:44:01.438Z,2.83
2019-05-17T14:46:32.674Z,2.60
2019-05-17T14:49:03.587Z,2.60
2019-05-17T14:51:34.457Z,2.60
2019-05-17T14:54:05.361Z,5.30
2019-05-17T14:56:36.225Z,2.90
2019-05-17T14:59:08.855Z,3.70
2019-05-17T15:01:39.531Z,4.58
2019-05-17T15:04:11.954Z,2.93
2019-05-17T15:06:42.604Z,3.47
2019-05-17T15:09:14.274Z,3.10
2019-05-17T15:11:45.194Z,3.00
2019-05-17T15:14:16.118Z,2.83
2019-05-17T15:16:47.012Z,2.53
2019-05-17T15:19:17.700Z,3.77
2019-05-17T15:21:48.776Z,2.70
2019-05-17T15:24:19.669Z,2.53
2019-05-17T15:27:04.846Z,2.97
2019-05-17T15:29:23.024Z,2.30
2019-05-17T15:31:53.967Z,2.27
2019-05-17T15:34:25.747Z,2.62
2019-05-17T15:36:56.682Z,3.00
2019-05-17T15:39:27.724Z,3.25
2019-05-17T15:41:58.543Z,3.27
2019-05-17T15:44:29.601Z,3.37
2019-05-17T15:47:00.651Z,21.17
2019-05-17T15:49:31.592Z,8.30
2019-05-17T15:52:02.672Z,2.80
2019-05-17T15:54:33.470Z,2.93
2019-05-17T15:57:04.729Z,2.58
2019-05-17T15:59:35.635Z,1.98
2019-05-17T16:02:06.915Z,2.47
2019-05-17T16:04:37.770Z,3.50
2019-05-17T16:07:08.744Z,3.33
2019-05-17T16:09:39.540Z,2.40
2019-05-17T16:12:10.792Z,1.75
2019-05-17T16:14:41.729Z,2.77
2019-05-17T16:17:13.589Z,1.52
2019-05-17T16:19:45.795Z,2.10
2019-05-17T16:22:16.950Z,2.08
2019-05-17T16:24:47.874Z,1.83
2019-05-17T16:27:18.786Z,2.10
2019-05-17T16:29:49.760Z,2.42
2019-05-17T16:32:20.858Z,1.85
2019-05-17T16:34:51.806Z,2.77
2019-05-17T16:37:22.900Z,2.00
2019-05-17T16:39:53.842Z,2.47
2019-05-17T16:42:24.826Z,3.17
2019-05-17T16:44:55.741Z,3.42
2019-05-17T16:47:26.591Z,2.20
2019-05-17T16:49:57.522Z,2.10
2019-05-17T16:52:31.043Z,2.87
2019-05-17T16:55:01.683Z,2.97
2019-05-17T16:57:32.676Z,2.20
2019-05-17T17:00:05.704Z,2.23
2019-05-17T17:02:36.916Z,1.72
2019-05-17T17:05:12.367Z,2.33
2019-05-17T17:07:44.080Z,1.60
2019-05-17T17:10:15.795Z,2.33
2019-05-17T17:12:46.662Z,6.60
2019-05-17T17:15:19.258Z,1.97
2019-05-17T17:17:50.705Z,2.17
2019-05-17T17:20:22.788Z,2.63
2019-05-17T17:22:53.814Z,1.40
2019-05-17T17:25:26.309Z,1.27
2019-05-17T17:27:56.939Z,1.40
2019-05-17T17:30:28.069Z,1.37
2019-05-17T17:33:32.676Z,1.83
2019-05-17T17:36:32.956Z,1.93
2019-05-17T17:39:06.401Z,3.80
2019-05-17T17:41:37.079Z,2.55
2019-05-17T17:44:20.390Z,3.53
2019-05-17T17:47:22.990Z,2.43
2019-05-17T17:50:03.257Z,3.30
2019-05-17T17:52:35.005Z,2.47
2019-05-17T17:58:09.157Z,2.20
2019-05-17T18:00:40.509Z,2.33
2019-05-17T18:03:15.433Z,2.93
2019-05-17T18:05:46.287Z,3.00
2019-05-17T18:08:23.563Z,1.60
2019-05-17T18:10:54.391Z,2.20
2019-05-17T18:13:38.025Z,3.00
2019-05-17T18:16:08.951Z,2.97
2019-05-17T18:18:40.162Z,2.80
2019-05-17T18:21:16.965Z,2.07
2019-05-17T18:23:48.030Z,2.43
2019-05-17T18:26:25.980Z,2.13
2019-05-17T18:28:56.825Z,2.43
2019-05-17T18:31:28.255Z,1.90
2019-05-17T18:33:59.157Z,1.87
2019-05-17T18:36:30.095Z,1.92
2019-05-17T18:39:01.879Z,2.33
2019-05-17T18:41:42.915Z,2.25
2019-05-17T18:44:26.893Z,2.10
2019-05-17T18:46:46.262Z,3.53
2019-05-17T18:49:17.173Z,2.07
2019-05-17T18:51:48.456Z,2.73
2019-05-17T18:54:40.132Z,2.43
2019-05-17T18:57:13.774Z,2.50
2019-05-17T18:59:45.817Z,4.78
2019-05-17T19:02:16.940Z,3.23
2019-05-17T19:04:47.924Z,4.17
2019-05-17T19:07:42.232Z,2.90
2019-05-17T19:10:28.626Z,3.27
2019-05-17T19:13:14.599Z,2.17
2019-05-17T19:15:45.493Z,5.90
2019-05-17T19:18:33.088Z,3.53
2019-05-17T19:21:06.661Z,4.00
2019-05-17T19:23:40.972Z,2.37
2019-05-17T19:26:16.544Z,2.10
2019-05-17T19:28:47.249Z,2.57
2019-05-17T19:31:17.976Z,1.87
2019-05-17T19:33:51.602Z,4.67
2019-05-17T19:36:22.273Z,2.73
2019-05-17T19:38:53.278Z,2.50
2019-05-17T19:41:24.169Z,4.17
2019-05-17T19:43:57.995Z,3.20
2019-05-17T19:46:29.646Z,2.13
2019-05-17T19:49:00.646Z,2.20
2019-05-17T19:51:31.796Z,2.50
2019-05-17T19:54:02.539Z,2.47
2019-05-17T19:56:34.160Z,2.80
2019-05-17T19:59:05.603Z,3.07
2019-05-17T20:01:36.762Z,3.93
2019-05-17T20:04:07.408Z,2.80
2019-05-17T20:06:38.447Z,3.62
2019-05-17T20:09:11.664Z,4.33
2019-05-17T20:11:42.703Z,5.85
2019-05-17T20:14:13.698Z,3.40
2019-05-17T20:16:44.452Z,3.50
2019-05-17T20:19:15.165Z,5.73
2019-05-17T20:21:45.892Z,3.87
2019-05-17T20:24:16.901Z,4.27
2019-05-17T20:26:47.699Z,3.73
2019-05-17T20:29:18.441Z,6.93
2019-05-17T20:31:49.203Z,5.13
2019-05-17T20:34:20.161Z,4.23
2019-05-17T20:36:53.055Z,5.53
2019-05-17T20:39:24.145Z,3.67
2019-05-17T20:41:57.436Z,3.63
2019-05-17T20:44:28.424Z,4.20
2019-05-17T20:46:59.180Z,4.27
2019-05-17T20:49:30.109Z,4.03
2019-05-17T20:52:00.969Z,4.80
2019-05-17T20:54:32.275Z,4.75
2019-05-17T20:57:02.953Z,4.10
2019-05-17T20:59:34.223Z,3.90
2019-05-17T21:02:05.264Z,4.57
2019-05-17T21:04:36.053Z,3.93
2019-05-17T21:07:07.101Z,3.93
2019-05-17T21:09:38.223Z,4.20
2019-05-17T21:12:17.143Z,4.37
2019-05-17T21:14:48.067Z,4.00
2019-05-17T21:17:19.310Z,4.37
2019-05-17T21:19:50.156Z,4.73
2019-05-17T21:22:21.160Z,4.93
2019-05-17T21:24:52.157Z,4.13
2019-05-17T21:27:33.804Z,3.70
2019-05-17T21:30:21.675Z,4.33
2019-05-17T21:32:54.485Z,5.10
2019-05-17T21:38:33.764Z,4.07
2019-05-17T21:41:12.333Z,6.83
2019-05-17T21:43:43.289Z,4.62
2019-05-17T21:46:29.977Z,4.40
2019-05-17T21:49:22.879Z,5.67
2019-05-17T21:52:04.157Z,4.53
2019-05-17T21:54:50.088Z,5.23
2019-05-17T21:57:22.105Z,3.50
2019-05-17T22:00:19.537Z,4.97
2019-05-17T22:03:05.105Z,4.97
2019-05-17T22:05:32.916Z,4.20
2019-05-17T22:08:03.742Z,4.20
2019-05-17T22:10:45.602Z,3.47
2019-05-17T22:13:33.744Z,4.75
2019-05-17T22:16:18.973Z,4.87
2019-05-17T22:18:51.705Z,4.10
2019-05-17T22:21:29.766Z,5.30
2019-05-17T22:24:00.504Z,3.83
2019-05-17T22:26:35.407Z,3.98
2019-05-17T22:29:06.374Z,4.43
2019-05-17T22:31:39.144Z,3.37
2019-05-17T22:34:13.147Z,4.10
2019-05-17T22:36:51.491Z,5.00
2019-05-17T22:39:26.210Z,4.13
2019-05-17T22:41:56.852Z,3.83
2019-05-17T22:44:33.691Z,3.53
2019-05-17T22:47:10.127Z,4.03
2019-05-17T22:49:47.650Z,5.90
2019-05-17T22:52:22.222Z,6.47
2019-05-17T22:54:56.304Z,5.00
2019-05-17T22:57:28.415Z,4.37
2019-05-17T23:00:00.197Z,5.27
2019-05-17T23:02:30.803Z,6.20
2019-05-17T23:05:06.872Z,4.10
2019-05-17T23:07:43.481Z,4.62
2019-05-17T23:10:21.167Z,4.20
2019-05-17T23:12:57.257Z,3.53
2019-05-17T23:15:39.089Z,5.00
2019-05-17T23:18:15.412Z,4.20
2019-05-17T23:20:49.841Z,3.93
2019-05-17T23:23:30.700Z,3.70
2019-05-17T23:26:01.419Z,4.87
2019-05-17T23:28:32.299Z,4.27
2019-05-17T23:31:03.308Z,4.00
2019-05-17T23:33:39.924Z,6.07
2019-05-17T23:36:18.406Z,5.57
2019-05-17T23:39:01.008Z,4.40
2019-05-17T23:42:21.262Z,4.58
2019-05-17T23:44:57.526Z,4.03
2019-05-17T23:47:36.789Z,3.70
2019-05-17T23:50:25.336Z,4.10
2019-05-17T23:52:56.012Z,4.37
2019-05-17T23:55:34.450Z,4.30
2019-05-17T23:58:08.339Z,4.50
